createdAt,value
2019-03-18T00:01:53.517Z,12.29
2019-03-18T00:04:25.857Z,14.58
2019-03-18T00:06:58.178Z,13.35
2019-03-18T00:09:31.041Z,12.16
2019-03-18T00:12:03.025Z,11.25
2019-03-18T00:14:35.583Z,10.63
2019-03-18T00:17:09.797Z,10.11
2019-03-18T00:19:43.070Z,9.65
2019-03-18T00:22:15.969Z,9.27
2019-03-18T00:24:48.107Z,8.93
2019-03-18T00:27:20.515Z,11.36
2019-03-18T00:29:52.786Z,13.76
2019-03-18T00:32:25.252Z,12.64
2019-03-18T00:34:57.628Z,11.45
2019-03-18T00:37:30.096Z,10.59
2019-03-18T00:40:02.009Z,10.01
2019-03-18T00:42:34.437Z,9.53
2019-03-18T00:45:14.596Z,9.11
2019-03-18T00:47:42.861Z,9.27
2019-03-18T00:50:19.239Z,12.48
2019-03-18T00:52:51.717Z,12.59
2019-03-18T00:55:23.630Z,11.42
2019-03-18T00:57:56.039Z,10.49
2019-03-18T01:00:28.513Z,9.86
2019-03-18T01:03:00.882Z,9.41
2019-03-18T01:05:33.164Z,9.00
2019-03-18T01:08:05.635Z,8.62
2019-03-18T01:10:37.902Z,10.70
2019-03-18T01:13:10.376Z,13.18
2019-03-18T01:15:42.286Z,12.00
2019-03-18T01:18:16.245Z,10.92
2019-03-18T01:20:49.640Z,10.14
2019-03-18T01:23:22.010Z,9.59
2019-03-18T01:25:55.305Z,9.13
2019-03-18T01:28:27.265Z,8.95
2019-03-18T01:30:59.179Z,11.95
2019-03-18T01:33:31.226Z,12.58
2019-03-18T01:36:03.562Z,11.25
2019-03-18T01:38:35.939Z,10.36
2019-03-18T01:41:08.208Z,9.76
2019-03-18T01:43:40.580Z,9.26
2019-03-18T01:46:12.850Z,9.90
2019-03-18T01:48:45.222Z,13.31
2019-03-18T01:51:17.127Z,13.16
2019-03-18T01:53:49.089Z,11.78
2019-03-18T01:56:21.407Z,10.84
2019-03-18T01:58:53.465Z,10.12
2019-03-18T02:01:25.376Z,9.58
2019-03-18T02:03:58.014Z,9.11
2019-03-18T02:06:29.923Z,9.28
2019-03-18T02:09:02.246Z,12.23
2019-03-18T02:11:34.521Z,11.80
2019-03-18T02:14:06.989Z,10.73
2019-03-18T02:16:39.264Z,9.92
2019-03-18T02:19:11.944Z,9.37
2019-03-18T02:21:44.209Z,8.91
2019-03-18T02:24:16.679Z,8.50
2019-03-18T02:26:49.059Z,9.04
2019-03-18T02:29:21.432Z,11.70
2019-03-18T02:31:53.702Z,10.97
2019-03-18T02:34:26.177Z,10.04
2019-03-18T02:36:58.079Z,9.37
2019-03-18T02:39:30.401Z,8.85
2019-03-18T02:42:02.679Z,8.41
2019-03-18T02:44:35.042Z,8.27
2019-03-18T02:47:07.318Z,11.35
2019-03-18T02:49:39.685Z,11.64
2019-03-18T02:52:12.056Z,10.59
2019-03-18T02:54:44.433Z,9.77
2019-03-18T02:57:16.758Z,9.16
2019-03-18T02:59:49.174Z,8.69
2019-03-18T03:02:21.077Z,8.29
2019-03-18T03:04:53.051Z,8.19
2019-03-18T03:07:25.368Z,11.47
2019-03-18T03:09:57.740Z,13.09
2019-03-18T03:12:30.016Z,11.60
2019-03-18T03:15:02.392Z,10.49
2019-03-18T03:17:35.673Z,9.66
2019-03-18T03:20:10.909Z,9.06
2019-03-18T03:22:43.290Z,8.61
2019-03-18T03:25:15.758Z,8.23
2019-03-18T03:27:47.659Z,9.11
2019-03-18T03:30:19.998Z,12.44
2019-03-18T03:32:52.309Z,12.29
2019-03-18T03:35:24.422Z,11.05
2019-03-18T03:37:56.336Z,10.04
2019-03-18T03:40:28.760Z,9.35
2019-03-18T03:43:01.036Z,8.80
2019-03-18T03:45:33.403Z,8.37
2019-03-18T03:48:05.534Z,7.99
2019-03-18T03:50:38.047Z,7.78
2019-03-18T03:53:10.175Z,10.63
2019-03-18T03:55:42.582Z,11.14
2019-03-18T03:58:14.858Z,10.04
2019-03-18T04:00:47.228Z,9.14
2019-03-18T04:03:19.604Z,8.54
2019-03-18T04:05:53.120Z,8.08
2019-03-18T04:08:25.370Z,7.66
2019-03-18T04:10:57.341Z,9.93
2019-03-18T04:13:29.600Z,11.58
2019-03-18T04:16:01.665Z,10.43
2019-03-18T04:18:33.935Z,9.46
2019-03-18T04:21:06.718Z,8.75
2019-03-18T04:23:38.985Z,8.20
2019-03-18T04:26:11.369Z,7.77
2019-03-18T04:28:43.681Z,7.95
2019-03-18T04:31:15.652Z,11.12
2019-03-18T04:33:47.991Z,11.45
2019-03-18T04:36:20.428Z,10.08
2019-03-18T04:38:52.707Z,9.23
2019-03-18T04:41:25.980Z,8.51
2019-03-18T04:43:58.262Z,8.01
2019-03-18T04:46:37.088Z,7.60
2019-03-18T04:49:11.022Z,9.51
2019-03-18T04:51:49.377Z,11.68
2019-03-18T04:54:23.117Z,10.57
2019-03-18T04:56:55.664Z,9.52
2019-03-18T04:59:28.129Z,8.74
2019-03-18T05:02:00.536Z,8.25
2019-03-18T05:04:32.809Z,7.78
2019-03-18T05:07:05.812Z,7.60
2019-03-18T05:09:38.165Z,10.62
2019-03-18T05:12:10.948Z,10.99
2019-03-18T05:14:42.850Z,9.94
2019-03-18T05:17:26.198Z,9.00
2019-03-18T05:19:48.806Z,8.40
2019-03-18T05:22:21.564Z,7.91
2019-03-18T05:24:53.825Z,8.30
2019-03-18T05:27:26.204Z,11.56
2019-03-18T05:29:58.473Z,10.98
2019-03-18T05:32:30.900Z,9.77
2019-03-18T05:35:02.807Z,8.99
2019-03-18T05:37:35.172Z,8.39
2019-03-18T05:40:09.297Z,7.88
2019-03-18T05:42:41.655Z,8.40
2019-03-18T05:45:13.567Z,11.75
2019-03-18T05:47:45.900Z,11.36
2019-03-18T05:50:18.271Z,10.15
2019-03-18T05:52:50.633Z,9.34
2019-03-18T05:55:22.912Z,8.75
2019-03-18T05:57:55.374Z,8.34
2019-03-18T06:00:27.413Z,7.95
2019-03-18T06:02:59.935Z,8.86
2019-03-18T06:05:32.303Z,11.96
2019-03-18T06:08:04.668Z,11.19
2019-03-18T06:10:37.035Z,10.15
2019-03-18T06:13:09.586Z,9.31
2019-03-18T06:15:41.884Z,8.71
2019-03-18T06:18:13.940Z,8.33
2019-03-18T06:20:46.212Z,8.05
2019-03-18T06:23:19.206Z,8.75
2019-03-18T06:25:51.118Z,11.18
2019-03-18T06:28:23.432Z,10.53
2019-03-18T06:30:55.808Z,9.61
2019-03-18T06:33:28.180Z,9.07
2019-03-18T06:36:00.446Z,8.58
2019-03-18T06:38:32.915Z,8.27
2019-03-18T06:41:06.423Z,8.01
2019-03-18T06:43:38.838Z,9.37
2019-03-18T06:46:11.162Z,11.09
2019-03-18T06:48:43.132Z,10.15
2019-03-18T06:51:15.391Z,9.41
2019-03-18T06:53:47.872Z,8.92
2019-03-18T06:56:20.138Z,8.54
2019-03-18T06:58:52.624Z,8.36
2019-03-18T07:01:24.886Z,8.29
2019-03-18T07:03:57.099Z,10.22
2019-03-18T07:06:29.419Z,9.85
2019-03-18T07:09:03.328Z,9.37
2019-03-18T07:11:35.603Z,8.86
2019-03-18T07:14:07.977Z,8.58
2019-03-18T07:16:40.247Z,8.39
2019-03-18T07:19:12.618Z,8.25
2019-03-18T07:21:45.098Z,8.91
2019-03-18T07:24:18.100Z,10.66
2019-03-18T07:26:50.448Z,10.04
2019-03-18T07:29:22.926Z,9.51
2019-03-18T07:31:56.604Z,9.10
2019-03-18T07:34:29.107Z,8.84
2019-03-18T07:37:01.472Z,8.52
2019-03-18T07:39:33.538Z,8.36
2019-03-18T07:42:06.751Z,8.17
2019-03-18T07:44:39.106Z,7.99
2019-03-18T07:47:11.366Z,7.85
2019-03-18T07:49:43.737Z,7.76
2019-03-18T07:52:16.013Z,9.61
2019-03-18T07:54:48.387Z,9.93
2019-03-18T07:57:20.653Z,9.27
2019-03-18T07:59:53.021Z,8.76
2019-03-18T08:02:25.149Z,8.39
2019-03-18T08:04:57.662Z,8.20
2019-03-18T08:07:29.577Z,8.04
2019-03-18T08:10:02.522Z,7.92
2019-03-18T08:12:35.802Z,7.85
2019-03-18T08:15:13.213Z,7.80
2019-03-18T08:17:45.568Z,7.74
2019-03-18T08:20:17.941Z,7.63
2019-03-18T08:22:50.210Z,7.58
2019-03-18T08:25:23.097Z,7.50
2019-03-18T08:27:55.357Z,7.50
2019-03-18T08:30:27.736Z,7.47
2019-03-18T08:32:59.647Z,7.42
2019-03-18T08:35:32.269Z,8.43
2019-03-18T08:38:04.545Z,10.27
2019-03-18T08:40:36.988Z,9.52
2019-03-18T08:43:09.287Z,8.92
2019-03-18T08:45:41.758Z,8.57
2019-03-18T08:48:14.032Z,8.30
2019-03-18T08:50:46.406Z,8.19
2019-03-18T08:53:18.777Z,8.13
2019-03-18T08:55:51.143Z,8.08
2019-03-18T08:58:24.721Z,8.05
2019-03-18T09:00:57.221Z,8.01
2019-03-18T09:03:29.589Z,8.02
2019-03-18T09:06:02.084Z,7.98
2019-03-18T09:08:34.333Z,7.91
2019-03-18T09:11:06.871Z,7.88
2019-03-18T09:13:38.780Z,7.78
2019-03-18T09:16:12.581Z,7.66
2019-03-18T09:18:44.848Z,7.58
2019-03-18T09:21:17.321Z,7.49
2019-03-18T09:23:49.697Z,7.43
2019-03-18T09:26:22.791Z,7.33
2019-03-18T09:28:55.800Z,7.25
2019-03-18T09:31:28.238Z,7.22
2019-03-18T09:34:00.254Z,7.18
2019-03-18T09:36:32.581Z,7.21
2019-03-18T09:39:06.283Z,7.23
2019-03-18T09:41:38.658Z,7.33
2019-03-18T09:44:11.030Z,7.45
2019-03-18T09:46:43.399Z,7.50
2019-03-18T09:49:21.492Z,7.53
2019-03-18T09:51:49.270Z,7.54
2019-03-18T09:54:21.185Z,7.53
2019-03-18T09:56:53.150Z,7.53
2019-03-18T09:59:26.585Z,7.61
2019-03-18T10:02:00.241Z,7.63
2019-03-18T10:04:32.459Z,7.73
2019-03-18T10:07:04.838Z,7.84
2019-03-18T10:09:37.099Z,7.88
2019-03-18T10:12:09.478Z,7.98
2019-03-18T10:14:41.843Z,8.01
2019-03-18T10:17:13.846Z,8.06
2019-03-18T10:19:46.176Z,8.05
2019-03-18T10:22:18.764Z,8.04
2019-03-18T10:24:50.670Z,8.02
2019-03-18T10:27:23.084Z,7.99
2019-03-18T10:29:55.458Z,7.94
2019-03-18T10:32:27.840Z,7.90
2019-03-18T10:35:00.323Z,7.82
2019-03-18T10:37:32.683Z,7.81
2019-03-18T10:40:06.894Z,7.77
2019-03-18T10:42:39.273Z,7.76
2019-03-18T10:45:14.306Z,7.73
2019-03-18T10:47:46.778Z,7.68
2019-03-18T10:50:20.275Z,7.63
2019-03-18T10:52:52.683Z,7.60
2019-03-18T10:55:24.918Z,7.60
2019-03-18T10:57:57.255Z,7.66
2019-03-18T11:00:29.622Z,7.67
2019-03-18T11:03:01.995Z,7.78
2019-03-18T11:05:34.385Z,7.82
2019-03-18T11:08:06.582Z,7.91
2019-03-18T11:10:38.919Z,7.92
2019-03-18T11:13:11.292Z,7.97
2019-03-18T11:15:43.203Z,8.04
2019-03-18T11:18:15.616Z,8.12
2019-03-18T11:20:47.995Z,8.20
2019-03-18T11:23:20.367Z,8.32
2019-03-18T11:25:55.401Z,8.47
2019-03-18T11:28:27.767Z,8.54
2019-03-18T11:30:59.678Z,8.52
2019-03-18T11:33:32.715Z,8.52
2019-03-18T11:36:05.096Z,8.51
2019-03-18T11:38:37.469Z,8.51
2019-03-18T11:41:09.840Z,8.48
2019-03-18T11:43:42.417Z,8.48
2019-03-18T11:46:14.787Z,8.51
2019-03-18T11:48:47.155Z,8.52
2019-03-18T11:51:19.532Z,8.58
2019-03-18T11:53:52.015Z,8.69
2019-03-18T11:56:24.590Z,8.78
2019-03-18T11:58:57.058Z,8.85
2019-03-18T12:01:29.941Z,8.95
2019-03-18T12:04:02.407Z,8.96
2019-03-18T12:06:34.892Z,8.96
2019-03-18T12:09:08.392Z,9.00
2019-03-18T12:11:40.964Z,9.03
2019-03-18T12:14:13.440Z,9.04
2019-03-18T12:16:45.700Z,9.06
2019-03-18T12:19:18.141Z,9.09
2019-03-18T12:21:50.454Z,9.09
2019-03-18T12:24:23.533Z,9.06
2019-03-18T12:26:55.918Z,9.06
2019-03-18T12:29:28.290Z,9.07
2019-03-18T12:32:00.541Z,9.09
2019-03-18T12:34:32.922Z,9.19
2019-03-18T12:37:05.196Z,9.28
2019-03-18T12:39:37.169Z,9.33
2019-03-18T12:42:10.166Z,9.38
2019-03-18T12:44:42.509Z,9.42
2019-03-18T12:47:14.881Z,9.51
2019-03-18T12:49:47.270Z,9.53
2019-03-18T12:52:19.638Z,9.52
2019-03-18T12:54:52.186Z,9.53
2019-03-18T12:57:24.713Z,9.58
2019-03-18T12:59:57.402Z,9.70
2019-03-18T13:02:29.538Z,9.77
2019-03-18T13:05:01.906Z,9.83
2019-03-18T13:07:34.275Z,9.89
2019-03-18T13:10:11.053Z,9.94
2019-03-18T13:12:43.430Z,9.90
2019-03-18T13:15:22.249Z,9.87
2019-03-18T13:17:54.844Z,9.79
2019-03-18T13:20:28.369Z,9.73
2019-03-18T13:23:00.685Z,9.66
2019-03-18T13:25:33.055Z,9.61
2019-03-18T13:28:05.431Z,9.51
2019-03-18T13:30:37.812Z,9.44
2019-03-18T13:33:10.184Z,9.33
2019-03-18T13:35:43.231Z,9.23
2019-03-18T13:38:15.788Z,9.16
2019-03-18T13:40:48.115Z,9.06
2019-03-18T13:43:20.489Z,9.00
2019-03-18T13:45:55.606Z,8.91
2019-03-18T13:48:26.772Z,8.88
2019-03-18T13:50:59.140Z,8.80
2019-03-18T13:53:31.402Z,8.74
2019-03-18T13:56:03.782Z,8.71
2019-03-18T13:58:36.260Z,8.72
2019-03-18T14:01:08.615Z,8.72
2019-03-18T14:03:40.999Z,8.69
2019-03-18T14:06:13.383Z,8.72
2019-03-18T14:08:46.863Z,8.72
2019-03-18T14:11:20.988Z,8.75
2019-03-18T14:13:53.379Z,8.76
2019-03-18T14:16:25.735Z,8.78
2019-03-18T14:18:58.086Z,8.80
2019-03-18T14:21:33.406Z,8.84
2019-03-18T14:24:04.472Z,8.88
2019-03-18T14:26:36.856Z,8.89
2019-03-18T14:29:09.228Z,8.89
2019-03-18T14:31:43.768Z,8.89
2019-03-18T14:34:15.764Z,8.88
2019-03-18T14:36:48.179Z,8.88
2019-03-18T14:39:20.604Z,8.89
2019-03-18T14:41:53.206Z,8.89
2019-03-18T14:44:25.365Z,8.92
2019-03-18T14:46:58.286Z,8.98
2019-03-18T14:49:30.665Z,9.04
2019-03-18T14:52:05.695Z,9.13
2019-03-18T14:54:38.670Z,9.23
2019-03-18T14:57:11.151Z,9.61
2019-03-18T14:59:43.519Z,10.17
2019-03-18T15:02:15.992Z,10.28
2019-03-18T15:04:48.261Z,10.32
2019-03-18T15:07:20.237Z,10.47
2019-03-18T15:09:52.603Z,10.67
2019-03-18T15:12:24.967Z,11.02
2019-03-18T15:14:57.342Z,11.49
2019-03-18T15:17:29.724Z,11.91
2019-03-18T15:20:02.745Z,12.39
2019-03-18T15:22:35.183Z,12.76
2019-03-18T15:25:24.113Z,13.23
2019-03-18T15:27:59.970Z,13.76
2019-03-18T15:30:36.602Z,14.05
2019-03-18T15:33:10.171Z,14.28
2019-03-18T15:38:43.456Z,14.58
2019-03-18T15:41:23.008Z,14.59
2019-03-18T15:44:07.588Z,14.71
2019-03-18T15:46:48.108Z,14.78
2019-03-18T15:49:21.129Z,14.70
2019-03-18T15:51:54.658Z,14.55
2019-03-18T15:54:54.103Z,14.29
2019-03-18T15:57:29.870Z,13.79
2019-03-18T15:59:59.383Z,13.37
2019-03-18T16:02:31.712Z,12.95
2019-03-18T16:05:03.701Z,12.58
2019-03-18T16:07:36.010Z,12.17
2019-03-18T16:10:12.901Z,11.80
2019-03-18T16:12:46.354Z,11.38
2019-03-18T16:15:19.775Z,11.06
2019-03-18T16:17:52.151Z,10.74
2019-03-18T16:20:27.013Z,10.49
2019-03-18T16:22:59.333Z,10.22
2019-03-18T16:25:32.020Z,10.00
2019-03-18T16:28:04.186Z,9.74
2019-03-18T16:30:36.164Z,9.53
2019-03-18T16:33:08.518Z,9.37
2019-03-18T16:35:40.885Z,9.21
2019-03-18T16:38:12.798Z,9.04
2019-03-18T16:40:45.232Z,8.88
2019-03-18T16:43:17.592Z,8.78
2019-03-18T16:45:49.966Z,8.67
2019-03-18T16:48:22.233Z,8.52
2019-03-18T16:50:54.617Z,8.44
2019-03-18T16:53:27.448Z,8.33
2019-03-18T16:55:59.875Z,8.25
2019-03-18T16:58:32.556Z,8.12
2019-03-18T17:01:05.166Z,8.04
2019-03-18T17:03:37.539Z,7.97
2019-03-18T17:06:10.084Z,7.85
2019-03-18T17:08:42.187Z,7.74
2019-03-18T17:11:14.612Z,7.67
2019-03-18T17:13:46.983Z,7.61
2019-03-18T17:16:19.407Z,7.50
2019-03-18T17:18:51.721Z,7.42
2019-03-18T17:21:24.156Z,7.29
2019-03-18T17:23:56.468Z,7.19
2019-03-18T17:26:28.450Z,7.07
2019-03-18T17:29:00.807Z,7.00
2019-03-18T17:31:34.228Z,6.90
2019-03-18T17:34:07.160Z,6.83
2019-03-18T17:36:39.556Z,6.78
2019-03-18T17:39:14.417Z,6.70
2019-03-18T17:41:45.065Z,6.72
2019-03-18T17:44:17.285Z,6.66
2019-03-18T17:46:49.872Z,6.66
2019-03-18T17:49:22.346Z,6.66
2019-03-18T17:51:54.811Z,6.66
2019-03-18T17:54:27.081Z,6.66
2019-03-18T17:57:07.296Z,6.66
2019-03-18T17:59:34.599Z,6.62
2019-03-18T18:02:07.093Z,6.56
2019-03-18T18:04:39.088Z,6.53
2019-03-18T18:07:11.610Z,6.49
2019-03-18T18:09:43.980Z,6.42
2019-03-18T18:12:16.353Z,6.59
2019-03-18T18:14:48.738Z,9.93
2019-03-18T18:17:21.190Z,10.56
2019-03-18T18:19:53.574Z,9.55
2019-03-18T18:22:26.046Z,8.78
2019-03-18T18:24:58.418Z,8.30
2019-03-18T18:27:30.795Z,7.92
2019-03-18T18:30:03.152Z,7.61
2019-03-18T18:32:36.650Z,7.35
2019-03-18T18:35:10.937Z,7.10
2019-03-18T18:37:43.341Z,6.93
2019-03-18T18:40:30.257Z,6.73
2019-03-18T18:43:02.634Z,6.56
2019-03-18T18:45:35.010Z,6.41
2019-03-18T18:48:07.388Z,6.27
2019-03-18T18:50:39.745Z,6.13
2019-03-18T18:53:11.972Z,6.02
2019-03-18T18:55:44.383Z,5.92
2019-03-18T18:58:16.773Z,5.82
2019-03-18T19:00:49.024Z,7.87
2019-03-18T19:03:22.438Z,8.84
2019-03-18T19:05:57.253Z,7.99
2019-03-18T19:08:31.255Z,7.42
2019-03-18T19:11:05.196Z,7.08
2019-03-18T19:13:42.283Z,6.84
2019-03-18T19:16:17.444Z,6.63
2019-03-18T19:18:49.983Z,6.51
2019-03-18T19:21:22.349Z,6.39
2019-03-18T19:23:54.728Z,6.25
2019-03-18T19:26:27.087Z,6.17
2019-03-18T19:29:00.098Z,6.10
2019-03-18T19:31:32.444Z,6.03
2019-03-18T19:34:05.231Z,5.95
2019-03-18T19:36:38.729Z,7.81
2019-03-18T19:39:11.097Z,9.07
2019-03-18T19:41:43.872Z,8.23
2019-03-18T19:44:17.474Z,7.66
2019-03-18T19:46:50.391Z,7.26
2019-03-18T19:49:22.745Z,7.00
2019-03-18T19:51:55.113Z,6.82
2019-03-18T19:54:27.099Z,6.62
2019-03-18T19:56:59.443Z,6.48
2019-03-18T19:59:31.915Z,6.32
2019-03-18T20:02:04.299Z,6.20
2019-03-18T20:04:36.278Z,6.11
2019-03-18T20:07:08.627Z,6.04
2019-03-18T20:09:40.997Z,5.96
2019-03-18T20:12:12.918Z,8.06
2019-03-18T20:14:45.547Z,9.28
2019-03-18T20:17:17.866Z,8.48
2019-03-18T20:19:50.181Z,7.92
2019-03-18T20:22:22.550Z,7.50
2019-03-18T20:24:54.925Z,7.26
2019-03-18T20:27:27.286Z,7.01
2019-03-18T20:30:00.839Z,6.84
2019-03-18T20:32:33.581Z,6.73
2019-03-18T20:35:12.920Z,6.56
2019-03-18T20:37:45.407Z,6.44
2019-03-18T20:40:18.791Z,6.30
2019-03-18T20:42:59.830Z,7.64
2019-03-18T20:45:34.693Z,10.20
2019-03-18T20:48:07.108Z,9.38
2019-03-18T20:50:39.638Z,8.58
2019-03-18T20:53:12.009Z,8.06
2019-03-18T20:55:44.436Z,7.73
2019-03-18T20:58:16.747Z,7.45
2019-03-18T21:00:59.877Z,7.22
2019-03-18T21:03:32.350Z,6.98
2019-03-18T21:06:05.027Z,6.84
2019-03-18T21:08:37.286Z,6.66
2019-03-18T21:11:12.374Z,6.51
2019-03-18T21:13:56.474Z,6.35
2019-03-18T21:16:21.570Z,8.62
2019-03-18T21:18:53.845Z,9.53
2019-03-18T21:21:25.846Z,8.64
2019-03-18T21:23:58.191Z,7.92
2019-03-18T21:26:32.301Z,7.49
2019-03-18T21:29:04.673Z,7.11
2019-03-18T21:31:37.135Z,6.89
2019-03-18T21:34:09.506Z,6.65
2019-03-18T21:36:41.980Z,6.48
2019-03-18T21:39:14.568Z,6.28
2019-03-18T21:41:47.878Z,8.34
2019-03-18T21:44:20.327Z,9.27
2019-03-18T21:46:52.700Z,8.39
2019-03-18T21:49:24.970Z,7.78
2019-03-18T21:51:57.653Z,7.32
2019-03-18T21:54:33.988Z,6.93
2019-03-18T21:57:04.540Z,6.68
2019-03-18T21:59:37.019Z,6.39
2019-03-18T22:02:09.451Z,6.28
2019-03-18T22:04:41.775Z,9.27
2019-03-18T22:07:21.808Z,10.62
2019-03-18T22:10:02.712Z,9.35
2019-03-18T22:13:08.782Z,8.34
2019-03-18T22:15:45.027Z,7.56
2019-03-18T22:18:17.488Z,7.19
2019-03-18T22:20:49.858Z,6.82
2019-03-18T22:23:22.226Z,6.48
2019-03-18T22:25:54.375Z,6.20
2019-03-18T22:28:26.446Z,6.02
2019-03-18T22:30:58.729Z,8.62
2019-03-18T22:33:36.144Z,10.35
2019-03-18T22:36:09.016Z,9.21
2019-03-18T22:38:41.691Z,8.25
2019-03-18T22:41:14.045Z,7.61
2019-03-18T22:43:49.894Z,7.21
2019-03-18T22:46:22.288Z,6.90
2019-03-18T22:48:54.661Z,6.68
2019-03-18T22:51:28.156Z,6.48
2019-03-18T22:54:00.521Z,6.24
2019-03-18T22:56:32.951Z,6.48
2019-03-18T22:59:04.937Z,9.79
2019-03-18T23:01:37.227Z,10.05
2019-03-18T23:04:09.203Z,8.86
2019-03-18T23:06:41.560Z,8.05
2019-03-18T23:09:14.054Z,7.50
2019-03-18T23:11:46.417Z,7.08
2019-03-18T23:14:18.881Z,6.78
2019-03-18T23:16:51.159Z,6.49
2019-03-18T23:19:23.624Z,6.24
2019-03-18T23:21:56.000Z,6.76
2019-03-18T23:24:28.368Z,9.49
2019-03-18T23:27:00.302Z,8.91
2019-03-18T23:29:32.698Z,7.98
2019-03-18T23:32:04.628Z,7.38
2019-03-18T23:34:37.137Z,6.94
2019-03-18T23:37:09.517Z,6.56
2019-03-18T23:39:41.508Z,6.28
2019-03-18T23:42:13.855Z,6.04
2019-03-18T23:44:46.223Z,6.72
2019-03-18T23:47:18.602Z,10.27
2019-03-18T23:49:51.074Z,9.77
2019-03-18T23:52:22.985Z,8.67
2019-03-18T23:54:55.411Z,7.84
2019-03-18T23:57:27.775Z,7.29
